Time;durP1;ratioP1;P1;durP2;ratioP2;P2;SDS_P1;SDS_P2;PMS_P1;PMS_P2;Temp;Humidity;BMP_temperature;BMP_pressure;BME280_temperature;BME280_humidity;BME280_pressure;Samples;Min_cycle;Max_cycle;Signal;HPM_P1;HPM_P2
2022/09/27 00:00:45;;;;;;;2.78;1.13;;;12.70;99.90;;;;;;4959223;28;92959;-72
2022/09/27 00:03:12;;;;;;;3.78;1.10;;;12.70;99.90;;;;;;4974698;28;92509;-71
2022/09/27 00:05:39;;;;;;;2.72;0.95;;;12.70;99.90;;;;;;4976317;28;92494;-72
2022/09/27 00:08:06;;;;;;;5.75;1.30;;;12.60;99.90;;;;;;4974650;28;95658;-72
2022/09/27 00:10:33;;;;;;;5.38;1.50;;;12.60;99.90;;;;;;4975017;28;100376;-72
2022/09/27 00:13:00;;;;;;;4.30;1.42;;;12.60;99.90;;;;;;4958171;28;92622;-72
2022/09/27 00:15:27;;;;;;;4.43;1.52;;;12.60;99.90;;;;;;4958362;28;92507;-71
2022/09/27 00:17:54;;;;;;;3.53;1.38;;;12.60;99.90;;;;;;4975332;28;93792;-72
2022/09/27 00:20:21;;;;;;;4.80;1.77;;;12.50;99.90;;;;;;4974431;28;92915;-71
2022/09/27 00:22:49;;;;;;;2.85;1.00;;;12.50;99.90;;;;;;4958242;28;92461;-71
2022/09/27 00:25:16;;;;;;;6.30;0.95;;;12.50;99.90;;;;;;4976012;28;91726;-72
2022/09/27 00:27:43;;;;;;;6.25;1.17;;;12.50;99.90;;;;;;4974580;28;93275;-72
2022/09/27 00:30:11;;;;;;;2.63;1.77;;;12.40;99.90;;;;;;4973850;28;95648;-71
2022/09/27 00:32:38;;;;;;;4.95;1.23;;;12.40;99.90;;;;;;4973262;28;95350;-72
2022/09/27 00:35:05;;;;;;;5.70;1.50;;;12.30;99.90;;;;;;4974137;28;92533;-72
2022/09/27 00:37:32;;;;;;;7.40;1.20;;;12.30;99.90;;;;;;4975587;28;93272;-72
2022/09/27 00:39:59;;;;;;;3.60;1.33;;;12.30;99.90;;;;;;4974054;28;95837;-72
2022/09/27 00:42:26;;;;;;;4.75;0.98;;;12.20;99.90;;;;;;4974196;28;93008;-72
2022/09/27 00:45:04;;;;;;;4.60;1.00;;;12.10;99.90;;;;;;4974080;28;92458;-72
2022/09/27 00:48:09;;;;;;;3.75;1.30;;;12.10;99.90;;;;;;4974067;28;95730;-72
2022/09/27 00:50:41;;;;;;;5.07;1.48;;;12.00;99.90;;;;;;4918507;28;92917;-72
2022/09/27 00:53:30;;;;;;;4.75;1.13;;;11.90;99.90;;;;;;4934139;28;92554;-72
2022/09/27 00:56:02;;;;;;;4.72;1.05;;;11.90;99.90;;;;;;4944266;28;92866;-71
2022/09/27 00:59:15;;;;;;;2.60;1.00;;;11.90;99.90;;;;;;4972648;28;98524;-71
2022/09/27 01:01:43;;;;;;;7.47;1.25;;;11.90;99.90;;;;;;4958039;28;98417;-71
2022/09/27 01:04:12;;;;;;;4.32;1.20;;;11.90;99.90;;;;;;4975416;28;92362;-72
2022/09/27 01:06:39;;;;;;;6.93;1.20;;;11.90;99.90;;;;;;4974174;28;93109;-72
2022/09/27 01:09:09;;;;;;;4.43;0.80;;;11.90;99.90;;;;;;4973897;28;95984;-72
2022/09/27 01:11:45;;;;;;;4.57;1.30;;;11.80;99.90;;;;;;4973848;28;95508;-72
2022/09/27 01:14:30;;;;;;;2.83;0.90;;;11.90;99.90;;;;;;4973503;28;92573;-72
2022/09/27 01:17:25;;;;;;;4.45;1.10;;;11.90;99.90;;;;;;4958226;28;92320;-72
2022/09/27 01:20:09;;;;;;;5.13;1.17;;;11.90;99.90;;;;;;4973655;28;95816;-71
2022/09/27 01:23:10;;;;;;;4.80;1.15;;;11.90;99.90;;;;;;4976105;28;95584;-72
2022/09/27 01:25:52;;;;;;;2.40;0.80;;;11.90;99.90;;;;;;4976021;28;94900;-72
2022/09/27 01:28:33;;;;;;;4.00;1.20;;;11.90;99.90;;;;;;4977089;28;92574;-72
2022/09/27 01:31:31;;;;;;;5.03;1.02;;;11.80;99.90;;;;;;4976984;28;93197;-72
2022/09/27 01:34:10;;;;;;;1.85;0.80;;;11.90;99.90;;;;;;4976989;28;95220;-72
2022/09/27 01:36:48;;;;;;;6.18;0.88;;;11.90;99.90;;;;;;4977093;28;92553;-71
2022/09/27 01:39:27;;;;;;;5.47;1.10;;;11.90;99.90;;;;;;4978243;28;92500;-72
2022/09/27 01:42:32;;;;;;;3.60;0.82;;;11.90;99.90;;;;;;4974972;28;93991;-72
2022/09/27 01:45:13;;;;;;;2.33;0.93;;;12.00;99.90;;;;;;4961165;28;95417;-72
2022/09/27 01:47:54;;;;;;;2.88;0.88;;;12.00;99.90;;;;;;4976974;28;92522;-71
2022/09/27 01:50:50;;;;;;;4.20;0.95;;;12.00;99.90;;;;;;4977546;28;92469;-72
2022/09/27 01:53:27;;;;;;;3.15;0.70;;;12.00;99.90;;;;;;4975153;28;97914;-71
2022/09/27 01:56:20;;;;;;;3.47;1.10;;;12.10;99.90;;;;;;4976409;28;96173;-72
2022/09/27 01:59:10;;;;;;;2.50;0.95;;;12.00;99.90;;;;;;4976600;28;92510;-71
2022/09/27 02:01:46;;;;;;;4.15;0.88;;;12.10;99.90;;;;;;4976814;28;92512;-71
2022/09/27 02:04:22;;;;;;;5.90;1.00;;;12.00;99.90;;;;;;4976359;28;95488;-72
2022/09/27 02:07:44;;;;;;;3.88;0.70;;;12.00;99.90;;;;;;4976226;28;93995;-71
2022/09/27 02:10:23;;;;;;;2.17;0.85;;;12.10;99.90;;;;;;4976719;28;92412;-72
2022/09/27 02:13:06;;;;;;;3.55;0.80;;;12.00;99.90;;;;;;4960873;28;92176;-72
2022/09/27 02:16:04;;;;;;;1.75;0.70;;;12.00;99.90;;;;;;4975882;28;95942;-72
2022/09/27 02:18:45;;;;;;;;;;;12.00;99.90;;;;;;4955633;28;94894;-71
2022/09/27 02:21:15;;;;;;;2.67;1.10;;;11.90;99.90;;;;;;4960245;28;95543;-72
2022/09/27 02:23:48;;;;;;;4.82;0.85;;;11.80;99.90;;;;;;4976224;28;92614;-72
2022/09/27 02:26:19;;;;;;;3.22;0.98;;;11.90;99.90;;;;;;4959701;28;94820;-72
2022/09/27 02:28:46;;;;;;;2.53;0.85;;;11.90;99.90;;;;;;4959952;28;95038;-72
2022/09/27 02:31:22;;;;;;;5.65;0.80;;;11.90;99.90;;;;;;4961020;28;92469;-71
2022/09/27 02:33:58;;;;;;;4.90;0.80;;;11.90;99.90;;;;;;4975198;28;92545;-72
2022/09/27 02:36:25;;;;;;;4.68;0.73;;;11.90;99.90;;;;;;4975774;28;95783;-72
2022/09/27 02:38:52;;;;;;;2.35;0.70;;;11.80;99.90;;;;;;4976137;28;95513;-71
2022/09/27 02:41:22;;;;;;;3.92;1.13;;;11.80;99.90;;;;;;4976206;28;92509;-72
2022/09/27 02:43:54;;;;;;;4.90;1.15;;;11.80;99.90;;;;;;4975575;28;92646;-72
2022/09/27 02:46:38;;;;;;;1.55;1.27;;;11.80;99.90;;;;;;4958335;28;98090;-72
2022/09/27 02:49:09;;;;;;;2.93;1.53;;;11.80;99.90;;;;;;4975819;28;97253;-71
2022/09/27 02:52:07;;;;;;;2.72;0.77;;;11.80;99.90;;;;;;4976971;28;92605;-71
2022/09/27 02:54:40;;;;;;;4.15;0.90;;;11.80;99.90;;;;;;4959451;28;92515;-72
2022/09/27 02:57:33;;;;;;;1.65;0.95;;;11.80;99.90;;;;;;4976441;28;94053;-71
2022/09/27 03:00:27;;;;;;;2.90;0.80;;;11.80;99.90;;;;;;4975420;28;95359;-71
2022/09/27 03:03:19;;;;;;;3.17;1.05;;;11.80;99.90;;;;;;4960362;28;92487;-71
2022/09/27 03:06:08;;;;;;;4.18;1.08;;;11.80;99.90;;;;;;4960639;28;91854;-72
2022/09/27 03:08:36;;;;;;;2.85;0.80;;;11.80;99.90;;;;;;4975767;28;93111;-72
2022/09/27 03:11:04;;;;;;;3.17;0.90;;;11.80;99.90;;;;;;4959027;28;95617;-71
2022/09/27 03:13:33;;;;;;;1.38;0.73;;;11.80;99.90;;;;;;4974106;28;94840;-71
2022/09/27 03:16:15;;;;;;;2.72;0.73;;;11.80;99.90;;;;;;4975477;28;92420;-72
2022/09/27 03:19:01;;;;;;;3.30;0.70;;;11.80;99.90;;;;;;4961028;28;95509;-72
2022/09/27 03:21:48;;;;;;;3.58;1.00;;;11.80;99.90;;;;;;4975583;28;93665;-72
2022/09/27 03:24:15;;;;;;;6.43;0.90;;;11.80;99.90;;;;;;4976737;28;92484;-71
2022/09/27 03:26:42;;;;;;;2.35;0.85;;;11.80;99.90;;;;;;4959112;28;93044;-72
2022/09/27 03:29:09;;;;;;;2.53;0.80;;;11.80;99.90;;;;;;4975112;28;95959;-71
2022/09/27 03:31:38;;;;;;;2.88;1.10;;;11.80;99.90;;;;;;4959476;28;94055;-72
2022/09/27 03:34:34;;;;;;;5.88;0.85;;;11.80;99.90;;;;;;4975298;28;92553;-72
2022/09/27 03:37:01;;;;;;;3.15;0.80;;;11.80;99.90;;;;;;4976628;28;92420;-72
2022/09/27 03:39:28;;;;;;;3.35;0.73;;;11.80;99.90;;;;;;4973696;28;98121;-72
2022/09/27 03:41:56;;;;;;;2.08;0.98;;;11.80;99.90;;;;;;4975062;28;95357;-72
2022/09/27 03:44:23;;;;;;;4.97;0.80;;;11.80;99.90;;;;;;4974451;28;92576;-72
2022/09/27 03:46:50;;;;;;;2.38;0.77;;;11.80;99.90;;;;;;4974366;28;92499;-71
2022/09/27 03:49:17;;;;;;;6.78;1.48;;;11.80;99.90;;;;;;4974807;28;95832;-72
2022/09/27 03:51:44;;;;;;;2.90;0.70;;;11.80;99.90;;;;;;4974571;28;95813;-72
2022/09/27 03:54:11;;;;;;;3.33;0.80;;;11.90;99.90;;;;;;4975059;28;92471;-71
2022/09/27 03:56:38;;;;;;;3.88;0.93;;;11.80;99.90;;;;;;4974958;28;91782;-71
2022/09/27 03:59:05;;;;;;;1.95;0.80;;;11.80;99.90;;;;;;4976113;28;93252;-71
2022/09/27 04:01:52;;;;;;;3.95;1.20;;;11.70;99.90;;;;;;4974667;28;92719;-71
2022/09/27 04:04:39;;;;;;;4.95;0.80;;;11.70;99.90;;;;;;4973733;28;95226;-71
2022/09/27 04:07:07;;;;;;;2.67;0.95;;;11.60;99.90;;;;;;4974702;28;92489;-71
2022/09/27 04:09:34;;;;;;;1.65;0.85;;;11.60;99.90;;;;;;4974648;28;95892;-72
2022/09/27 04:12:01;;;;;;;2.75;0.90;;;11.50;99.90;;;;;;4958417;28;95319;-72
2022/09/27 04:14:29;;;;;;;0.80;0.77;;;11.50;99.90;;;;;;4974679;28;92394;-71
2022/09/27 04:17:34;;;;;;;2.97;0.80;;;11.40;99.90;;;;;;4914677;28;92534;-72
2022/09/27 04:20:31;;;;;;;2.83;0.80;;;11.40;99.90;;;;;;4863926;28;92947;-71
2022/09/27 04:22:59;;;;;;;1.60;0.75;;;11.30;99.90;;;;;;4949532;28;95199;-72
2022/09/27 04:25:28;;;;;;;3.88;1.05;;;11.20;99.90;;;;;;4958363;28;92493;-71
2022/09/27 04:28:00;;;;;;;2.88;0.60;;;11.20;99.90;;;;;;4974431;28;92614;-71
2022/09/27 04:30:28;;;;;;;4.47;0.93;;;11.10;99.90;;;;;;4973038;28;98245;-71
2022/09/27 04:33:04;;;;;;;2.75;0.68;;;11.10;99.90;;;;;;4972757;28;95259;-71
2022/09/27 04:38:38;;;;;;;3.20;0.70;;;11.00;99.90;;;;;;4974516;28;93676;-72
2022/09/27 04:41:07;;;;;;;6.38;1.02;;;10.90;99.90;;;;;;4974133;28;95704;-71
2022/09/27 04:43:37;;;;;;;4.05;0.70;;;10.90;99.90;;;;;;4974178;28;95355;-71
2022/09/27 04:46:05;;;;;;;2.05;0.88;;;10.90;99.90;;;;;;4974272;28;92534;-72
2022/09/27 04:48:32;;;;;;;1.55;0.70;;;10.80;99.90;;;;;;4974905;28;92130;-72
2022/09/27 04:51:01;;;;;;;3.13;0.80;;;10.90;99.90;;;;;;4975331;28;93210;-72
2022/09/27 04:53:29;;;;;;;3.13;0.77;;;10.90;99.90;;;;;;4957733;28;95111;-71
2022/09/27 04:55:57;;;;;;;2.47;0.70;;;10.90;99.90;;;;;;4972888;28;94973;-71
2022/09/27 04:58:24;;;;;;;2.70;0.75;;;10.90;99.90;;;;;;4979041;28;92457;-71
2022/09/27 05:00:52;;;;;;;2.28;0.88;;;11.00;99.90;;;;;;4960792;28;95742;-71
2022/09/27 05:03:51;;;;;;;2.92;1.02;;;11.00;99.90;;;;;;4977250;28;94089;-71
2022/09/27 05:06:18;;;;;;;2.60;0.75;;;11.00;99.90;;;;;;4961824;28;92682;-72
2022/09/27 05:08:45;;;;;;;1.92;0.70;;;11.00;99.90;;;;;;4960967;28;92517;-72
2022/09/27 05:11:32;;;;;;;3.53;0.70;;;11.10;99.90;;;;;;4977779;28;93055;-72
2022/09/27 05:14:18;;;;;;;2.22;0.70;;;11.10;99.90;;;;;;4976451;28;91788;-71
2022/09/27 05:17:06;;;;;;;2.50;0.70;;;11.10;99.90;;;;;;4977038;28;92561;-72
2022/09/27 05:19:58;;;;;;;3.33;0.70;;;11.10;99.90;;;;;;4976820;28;92689;-71
2022/09/27 05:22:38;;;;;;;5.65;1.05;;;11.10;99.90;;;;;;4975979;28;97974;-72
2022/09/27 05:25:06;;;;;;;1.60;0.80;;;11.20;99.90;;;;;;4976696;28;98135;-71
2022/09/27 05:27:33;;;;;;;2.20;0.77;;;11.20;99.90;;;;;;4977369;28;92672;-72
2022/09/27 05:30:00;;;;;;;1.80;0.65;;;11.20;99.90;;;;;;4960582;28;93336;-72
2022/09/27 05:32:56;;;;;;;5.03;0.90;;;11.20;99.90;;;;;;4968175;28;93125;-72
2022/09/27 05:35:56;;;;;;;2.75;0.70;;;11.20;99.90;;;;;;4964364;28;93898;-72
2022/09/27 05:38:28;;;;;;;1.60;0.70;;;11.30;99.90;;;;;;4977338;28;92719;-72
2022/09/27 05:40:57;;;;;;;3.28;0.77;;;11.30;99.90;;;;;;4977097;28;91751;-72
2022/09/27 05:43:24;;;;;;;3.55;0.80;;;11.30;99.90;;;;;;4977030;28;95918;-72
2022/09/27 05:45:52;;;;;;;2.92;0.90;;;11.40;99.90;;;;;;4976564;28;95257;-72
2022/09/27 05:48:21;;;;;;;2.40;0.70;;;11.40;99.90;;;;;;4975788;28;95423;-72
2022/09/27 05:51:05;;;;;;;1.67;0.90;;;11.40;99.90;;;;;;4976746;28;92509;-71
2022/09/27 05:53:35;;;;;;;5.20;0.90;;;11.40;99.90;;;;;;4976442;28;94992;-72
2022/09/27 05:56:05;;;;;;;2.67;0.80;;;11.40;99.90;;;;;;4976417;28;93991;-71
2022/09/27 05:58:51;;;;;;;3.22;0.93;;;11.50;99.90;;;;;;4977762;28;92414;-71
2022/09/27 06:01:19;;;;;;;5.22;0.90;;;11.50;99.90;;;;;;4976381;28;92599;-72
2022/09/27 06:04:09;;;;;;;3.42;0.90;;;11.50;99.90;;;;;;4975724;28;93348;-72
2022/09/27 06:06:36;;;;;;;3.13;1.02;;;11.50;99.90;;;;;;4978475;28;92650;-72
2022/09/27 06:09:04;;;;;;;3.05;0.98;;;11.50;99.90;;;;;;4975530;28;92559;-71
2022/09/27 06:11:31;;;;;;;1.42;1.33;;;11.60;99.90;;;;;;4976578;28;92522;-72
2022/09/27 06:13:58;;;;;;;2.58;1.10;;;11.60;99.90;;;;;;4958758;28;97964;-72
2022/09/27 06:16:26;;;;;;;4.03;1.38;;;11.60;99.90;;;;;;4960016;28;97736;-72
2022/09/27 06:18:53;;;;;;;5.80;1.88;;;11.60;99.90;;;;;;4975809;28;92644;-72
2022/09/27 06:21:21;;;;;;;3.58;1.30;;;11.70;99.90;;;;;;4960216;28;93219;-71
2022/09/27 06:23:55;;;;;;;2.25;1.05;;;11.70;99.90;;;;;;4976050;28;95634;-72
2022/09/27 06:26:32;;;;;;;2.53;1.15;;;11.70;99.90;;;;;;4976235;28;95389;-71
2022/09/27 06:29:21;;;;;;;6.75;1.23;;;11.80;99.90;;;;;;4976447;28;92496;-72
2022/09/27 06:31:58;;;;;;;3.00;1.48;;;11.80;99.90;;;;;;4976048;28;91781;-72
2022/09/27 06:34:50;;;;;;;4.10;1.25;;;11.90;99.90;;;;;;4972903;28;93112;-72
2022/09/27 06:37:17;;;;;;;1.98;1.10;;;12.00;99.90;;;;;;4975665;28;95339;-72
2022/09/27 06:39:44;;;;;;;3.55;1.27;;;12.00;99.90;;;;;;4958940;28;94958;-72
2022/09/27 06:42:32;;;;;;;2.53;1.15;;;12.10;99.90;;;;;;4975698;28;92638;-72
2022/09/27 06:45:15;;;;;;;3.17;1.23;;;12.20;99.90;;;;;;4961510;28;95723;-71
2022/09/27 06:48:21;;;;;;;1.45;1.20;;;12.30;99.90;;;;;;4967473;28;93874;-71
2022/09/27 06:50:57;;;;;;;3.78;1.52;;;12.40;99.90;;;;;;4975903;28;92571;-71
2022/09/27 06:53:25;;;;;;;1.92;0.70;;;12.40;99.90;;;;;;4975543;28;92619;-72
2022/09/27 06:55:52;;;;;;;4.47;0.90;;;12.50;99.90;;;;;;4959444;28;95689;-72
2022/09/27 07:01:28;;;;;;;4.22;1.02;;;12.80;99.90;;;;;;4976330;28;92489;-72
2022/09/27 07:04:15;;;;;;;2.80;0.85;;;12.90;99.90;;;;;;4975568;28;92952;-71
2022/09/27 07:07:11;;;;;;;2.78;1.10;;;13.00;99.90;;;;;;4965480;28;95518;-71
2022/09/27 07:09:46;;;;;;;2.92;0.73;;;13.10;99.90;;;;;;4975274;28;98059;-72
2022/09/27 07:12:13;;;;;;;4.25;1.00;;;13.20;99.90;;;;;;4975359;28;92574;-72
2022/09/27 07:14:41;;;;;;;1.83;1.17;;;13.20;99.90;;;;;;4959436;28;92617;-71
2022/09/27 07:17:14;;;;;;;2.85;1.00;;;13.30;99.90;;;;;;4974883;28;95528;-72
2022/09/27 07:19:43;;;;;;;1.67;0.80;;;13.30;99.90;;;;;;4974846;28;95637;-71
2022/09/27 07:22:11;;;;;;;2.03;0.70;;;13.30;99.90;;;;;;4975268;28;92503;-71
2022/09/27 07:24:41;;;;;;;3.42;1.00;;;13.30;99.90;;;;;;4975567;28;91735;-71
2022/09/27 07:27:09;;;;;;;3.53;1.10;;;13.30;99.90;;;;;;4974783;28;95356;-72
2022/09/27 07:29:36;;;;;;;2.50;1.10;;;13.30;99.90;;;;;;4958702;28;95545;-72
2022/09/27 07:32:03;;;;;;;1.48;0.70;;;13.30;99.90;;;;;;4973975;28;95342;-72
2022/09/27 07:34:32;;;;;;;4.25;0.75;;;13.40;99.90;;;;;;4975126;28;92550;-72
2022/09/27 07:37:02;;;;;;;3.08;0.90;;;13.50;99.90;;;;;;4974985;28;95561;-71
2022/09/27 07:39:30;;;;;;;3.25;1.10;;;13.60;99.90;;;;;;4959001;28;95417;-72
2022/09/27 07:41:57;;;;;;;2.67;1.45;;;13.70;99.90;;;;;;4975472;28;92541;-72
2022/09/27 07:44:24;;;;;;;5.32;1.10;;;13.80;99.90;;;;;;4974719;28;92564;-71
2022/09/27 07:47:12;;;;;;;2.72;1.00;;;13.90;99.90;;;;;;4925647;28;93092;-72
2022/09/27 07:49:57;;;;;;;2.53;1.13;;;14.10;99.90;;;;;;4976114;28;92447;-71
2022/09/27 07:52:46;;;;;;;4.13;1.27;;;14.20;99.90;;;;;;4965072;28;92796;-71
2022/09/27 07:55:33;;;;;;;4.40;1.15;;;14.40;99.90;;;;;;4975020;28;92606;-72
2022/09/27 07:58:18;;;;;;;;;;;14.60;99.90;;;;;;4973771;28;98179;-71
2022/09/27 08:00:45;;;;;;;2.25;1.38;;;14.50;99.90;;;;;;4975786;28;97133;-72
2022/09/27 08:03:15;;;;;;;1.85;0.70;;;14.50;99.90;;;;;;4974775;28;92477;-71
2022/09/27 08:05:45;;;;;;;4.32;1.10;;;14.60;99.90;;;;;;4974290;28;92471;-72
2022/09/27 08:08:14;;;;;;;2.15;1.08;;;14.60;99.90;;;;;;4958233;28;95787;-72
2022/09/27 08:10:43;;;;;;;2.33;1.45;;;14.50;99.90;;;;;;4958535;28;95407;-71
2022/09/27 08:13:11;;;;;;;1.58;0.95;;;14.50;99.90;;;;;;4974518;28;92507;-71
2022/09/27 08:15:39;;;;;;;2.50;0.98;;;14.50;99.90;;;;;;4958854;28;91804;-71
2022/09/27 08:18:10;;;;;;;2.72;1.10;;;14.50;99.90;;;;;;4957861;28;94636;-71
2022/09/27 08:21:03;;;;;;;2.45;2.00;;;14.50;99.90;;;;;;4973332;28;93047;-72
2022/09/27 08:23:50;;;;;;;3.58;1.35;;;14.50;99.90;;;;;;4974058;28;94907;-72
2022/09/27 08:26:22;;;;;;;1.75;0.70;;;14.40;99.90;;;;;;4958660;28;92747;-71
2022/09/27 08:29:02;;;;;;;1.58;1.10;;;14.40;99.90;;;;;;4974531;28;95431;-72
2022/09/27 08:31:31;;;;;;;4.93;1.10;;;14.40;99.90;;;;;;4973408;28;94911;-71
2022/09/27 08:33:59;;;;;;;2.95;1.48;;;14.50;99.90;;;;;;4958144;28;92581;-72
2022/09/27 08:36:25;;;;;;;1.55;0.60;;;14.80;99.90;;;;;;4973806;28;92514;-72
2022/09/27 08:38:56;;;;;;;2.92;0.80;;;15.00;99.90;;;;;;4941690;28;96149;-72
2022/09/27 08:41:32;;;;;;;1.55;0.70;;;15.20;99.90;;;;;;4958790;28;95053;-71
2022/09/27 08:44:24;;;;;;;3.58;1.08;;;15.40;99.90;;;;;;4974527;28;92989;-71
2022/09/27 08:47:42;;;;;;;1.83;0.70;;;15.60;99.90;;;;;;4974116;28;93649;-72
2022/09/27 08:50:28;;;;;;;2.38;1.65;;;15.70;99.90;;;;;;4972588;28;98580;-72
2022/09/27 08:53:13;;;;;;;1.67;1.35;;;15.80;99.90;;;;;;4974057;28;97414;-72
2022/09/27 08:55:49;;;;;;;0.95;0.52;;;16.00;99.90;;;;;;4958180;28;92486;-72
2022/09/27 08:58:34;;;;;;;4.30;0.90;;;16.00;99.90;;;;;;4973756;28;92569;-72
2022/09/27 09:01:10;;;;;;;2.08;0.80;;;16.20;99.90;;;;;;4973895;28;95496;-72
2022/09/27 09:03:49;;;;;;;2.13;1.75;;;16.20;99.90;;;;;;4973969;28;93917;-72
2022/09/27 09:06:22;;;;;;;2.22;0.77;;;16.20;99.90;;;;;;4974268;28;93035;-72
2022/09/27 09:09:17;;;;;;;3.20;0.90;;;16.10;99.90;;;;;;4976078;28;91753;-72
2022/09/27 09:12:46;;;;;;;1.75;0.77;;;16.20;99.90;;;;;;4973611;28;95738;-72
2022/09/27 09:16:04;;;;;;;1.08;0.90;;;16.00;99.90;;;;;;4973625;28;95284;-72
2022/09/27 09:18:56;;;;;;;1.67;0.80;;;16.00;99.90;;;;;;4969494;28;94955;-72
2022/09/27 09:21:44;;;;;;;3.13;0.90;;;15.90;99.90;;;;;;4973699;28;92515;-72
2022/09/27 09:24:18;;;;;;;0.80;0.50;;;15.90;99.90;;;;;;4973595;28;95588;-72
2022/09/27 09:27:18;;;;;;;1.67;1.35;;;15.80;99.90;;;;;;4956972;28;95344;-72
2022/09/27 09:30:07;;;;;;;1.13;1.02;;;15.90;99.90;;;;;;4950279;28;92693;-72
2022/09/27 09:33:01;;;;;;;3.13;1.00;;;15.90;99.90;;;;;;4973388;28;92510;-72
2022/09/27 09:35:37;;;;;;;2.53;0.90;;;16.00;99.90;;;;;;4974869;28;93219;-72
2022/09/27 09:38:12;;;;;;;2.60;1.65;;;16.10;99.90;;;;;;4973785;28;95746;-71
2022/09/27 09:40:51;;;;;;;3.78;1.23;;;16.30;99.90;;;;;;4973436;28;92457;-72
2022/09/27 09:43:42;;;;;;;2.70;0.80;;;16.40;99.90;;;;;;4959417;28;93035;-72
2022/09/27 09:46:29;;;;;;;1.85;0.70;;;16.60;99.90;;;;;;4975286;28;98040;-72
2022/09/27 09:49:06;;;;;;;2.28;1.20;;;16.70;99.90;;;;;;4976566;28;97592;-72
2022/09/27 09:51:43;;;;;;;0.75;0.50;;;16.80;99.90;;;;;;4977964;28;92945;-72
2022/09/27 09:54:35;;;;;;;1.30;0.65;;;16.80;99.90;;;;;;4976607;28;92514;-71
2022/09/27 09:57:28;;;;;;;1.67;1.57;;;16.80;99.90;;;;;;4976556;28;95844;-72
2022/09/27 10:00:05;;;;;;;2.92;1.50;;;16.80;99.90;;;;;;4976444;28;94911;-72
2022/09/27 10:02:43;;;;;;;3.25;2.33;;;16.80;99.90;;;;;;4976501;28;92368;-72
2022/09/27 10:05:17;;;;;;;3.33;1.10;;;16.90;99.90;;;;;;4961371;28;91759;-72
2022/09/27 10:07:49;;;;;;;2.35;0.85;;;17.10;99.90;;;;;;4976119;28;94192;-72
2022/09/27 10:10:19;;;;;;;1.92;1.77;;;17.10;99.90;;;;;;4960223;28;95249;-72
2022/09/27 10:13:04;;;;;;;1.35;1.10;;;17.30;99.90;;;;;;4975238;28;94929;-72
2022/09/27 10:15:36;;;;;;;1.58;0.60;;;17.40;99.90;;;;;;4976271;28;92471;-72
2022/09/27 10:18:04;;;;;;;2.45;2.25;;;17.50;99.90;;;;;;4959800;28;95524;-72
2022/09/27 10:20:38;;;;;;;1.00;0.60;;;17.70;99.90;;;;;;4977386;28;92851;-72
2022/09/27 10:23:20;;;;;;;3.78;2.47;;;17.80;99.90;;;;;;4976279;28;92573;-72
2022/09/27 10:26:18;;;;;;;2.75;0.85;;;18.00;99.50;;;;;;4975403;28;92471;-72
2022/09/27 10:28:50;;;;;;;3.20;1.67;;;18.00;99.80;;;;;;4959972;28;95571;-72
2022/09/27 10:31:23;;;;;;;3.15;2.88;;;18.10;99.40;;;;;;4961266;28;95224;-72
2022/09/27 10:34:04;;;;;;;3.20;0.98;;;18.30;98.80;;;;;;4976117;28;92793;-72
2022/09/27 10:36:38;;;;;;;1.48;1.05;;;18.30;98.00;;;;;;4975927;28;92534;-72
2022/09/27 10:39:13;;;;;;;3.55;3.00;;;18.40;97.90;;;;;;4974676;28;98034;-72
2022/09/27 10:41:44;;;;;;;3.70;1.08;;;18.40;98.10;;;;;;4975130;28;97736;-72
2022/09/27 10:44:33;;;;;;;0.43;0.43;;;18.40;97.60;;;;;;4975980;28;92455;-72
2022/09/27 10:47:25;;;;;;;0.35;0.32;;;18.00;96.50;;;;;;4976662;28;92501;-72
2022/09/27 10:50:06;;;;;;;0.47;0.30;;;17.30;97.20;;;;;;4959946;28;95515;-72
2022/09/27 10:53:12;;;;;;;0.65;0.65;;;16.60;98.60;;;;;;4975603;28;95458;-72
2022/09/27 10:55:41;;;;;;;1.85;1.70;;;16.20;99.90;;;;;;4959049;28;92955;-72
2022/09/27 10:58:19;;;;;;;0.40;0.40;;;15.90;99.90;;;;;;4975687;28;91839;-72
2022/09/27 11:01:02;;;;;;;0.80;0.80;;;15.90;99.90;;;;;;4975486;28;95149;-72
2022/09/27 11:03:47;;;;;;;0.40;0.40;;;16.10;99.90;;;;;;4975316;28;93979;-72
2022/09/27 11:06:23;;;;;;;0.40;0.30;;;16.10;99.90;;;;;;4974478;28;94892;-72
2022/09/27 11:08:54;;;;;;;0.60;0.40;;;16.30;99.90;;;;;;4975308;28;92687;-72
2022/09/27 11:11:27;;;;;;;0.70;0.60;;;16.30;99.90;;;;;;4975081;28;95809;-72
2022/09/27 11:13:56;;;;;;;0.73;0.40;;;16.40;99.90;;;;;;4976421;28;92940;-72
2022/09/27 11:16:50;;;;;;;0.40;0.40;;;16.50;99.90;;;;;;4975213;28;92543;-72
2022/09/27 11:19:48;;;;;;;1.17;0.57;;;16.50;99.90;;;;;;4958614;28;93296;-72
2022/09/27 11:22:15;;;;;;;0.60;0.60;;;16.70;99.90;;;;;;4975211;28;95793;-72
2022/09/27 11:25:06;;;;;;;1.05;0.90;;;16.70;99.90;;;;;;4975477;28;95405;-72
2022/09/27 11:27:42;;;;;;;1.98;1.10;;;16.80;99.90;;;;;;4959266;28;92490;-72
2022/09/27 11:30:15;;;;;;;2.03;1.02;;;16.90;99.90;;;;;;4959115;28;93030;-72
2022/09/27 11:33:19;;;;;;;2.22;0.88;;;16.90;99.90;;;;;;4973735;28;97710;-72
2022/09/27 11:36:06;;;;;;;2.97;1.20;;;17.00;99.90;;;;;;4974413;28;97703;-72
2022/09/27 11:38:49;;;;;;;2.40;1.30;;;17.00;99.90;;;;;;4975353;28;92825;-72
2022/09/27 11:42:07;;;;;;;2.58;1.58;;;16.90;99.90;;;;;;4975203;28;92489;-72
2022/09/27 11:45:24;;;;;;;3.20;1.60;;;16.90;99.90;;;;;;4934774;28;93292;-72
2022/09/27 11:48:34;;;;;;;3.17;1.48;;;17.00;99.60;;;;;;4918542;28;95343;-72
2022/09/27 11:51:23;;;;;;;1.23;1.05;;;16.90;99.90;;;;;;4964776;28;92589;-72
2022/09/27 11:54:09;;;;;;;1.42;0.60;;;16.90;99.90;;;;;;4975545;28;91721;-72
2022/09/27 11:56:42;;;;;;;1.08;0.93;;;16.90;99.90;;;;;;4974574;28;94575;-72
2022/09/27 11:59:46;;;;;;;1.00;0.40;;;16.60;99.00;;;;;;4974767;28;95549;-72
2022/09/27 12:02:33;;;;;;;2.40;0.73;;;16.50;97.80;;;;;;4961833;28;94927;-72
2022/09/27 12:05:26;;;;;;;0.40;0.40;;;16.30;98.50;;;;;;4957975;28;92652;-72
2022/09/27 12:08:12;;;;;;;1.77;0.70;;;16.20;98.70;;;;;;4973989;28;95129;-72
2022/09/27 12:10:46;;;;;;;2.33;1.70;;;16.10;99.10;;;;;;4974767;28;92940;-72
2022/09/27 12:13:19;;;;;;;3.05;1.50;;;16.10;99.60;;;;;;4974625;28;92416;-72
2022/09/27 12:15:47;;;;;;;1.20;0.70;;;16.10;99.90;;;;;;4974388;28;92476;-72
2022/09/27 12:18:38;;;;;;;1.55;1.10;;;16.10;99.90;;;;;;4973908;28;95207;-72
2022/09/27 12:21:17;;;;;;;0.80;0.47;;;16.30;99.90;;;;;;4974710;28;94968;-72
2022/09/27 12:23:57;;;;;;;1.30;1.30;;;16.50;99.80;;;;;;4974447;28;92571;-73
2022/09/27 12:26:39;;;;;;;0.80;0.40;;;16.80;99.60;;;;;;4959612;28;92511;-72
2022/09/27 12:29:37;;;;;;;1.27;0.70;;;17.10;99.60;;;;;;4972919;28;97912;-72
2022/09/27 12:32:10;;;;;;;0.70;0.45;;;17.40;98.90;;;;;;4974033;28;98010;-72
2022/09/27 12:34:50;;;;;;;2.45;0.90;;;17.60;98.60;;;;;;4974339;28;92553;-72
2022/09/27 12:37:27;;;;;;;1.25;1.10;;;17.50;97.40;;;;;;4974520;28;92524;-72
2022/09/27 12:40:12;;;;;;;2.17;1.67;;;17.60;97.60;;;;;;4974014;28;95296;-72
2022/09/27 12:42:48;;;;;;;7.82;7.15;;;17.60;97.10;;;;;;4974047;28;94986;-72
2022/09/27 12:45:34;;;;;;;1.65;0.85;;;17.70;97.30;;;;;;4959259;28;92507;-72
2022/09/27 12:48:22;;;;;;;1.50;1.33;;;17.80;97.10;;;;;;4974309;28;91808;-72
2022/09/27 12:50:54;;;;;;;1.63;1.05;;;17.80;96.90;;;;;;4957730;28;95738;-72
2022/09/27 12:53:28;;;;;;;0.60;0.60;;;17.70;96.60;;;;;;4973845;28;95665;-72
2022/09/27 12:56:10;;;;;;;1.05;0.50;;;17.60;96.90;;;;;;4956721;28;95486;-72
2022/09/27 12:58:40;;;;;;;0.47;0.40;;;17.50;97.20;;;;;;4957977;28;92517;-72
2022/09/27 13:01:17;;;;;;;0.68;0.68;;;17.40;97.40;;;;;;4957807;28;95526;-72
2022/09/27 13:03:59;;;;;;;2.58;2.47;;;17.30;98.10;;;;;;4974003;28;95406;-73
2022/09/27 13:07:03;;;;;;;1.88;1.77;;;17.30;97.40;;;;;;4974072;28;92563;-72
2022/09/27 13:09:54;;;;;;;0.90;0.50;;;17.30;97.50;;;;;;4974109;28;92630;-72
2022/09/27 13:12:26;;;;;;;2.10;1.48;;;17.20;98.00;;;;;;4957852;28;95706;-72
2022/09/27 13:14:59;;;;;;;2.72;2.53;;;17.10;98.20;;;;;;4957499;28;95277;-72
2022/09/27 13:17:32;;;;;;;1.63;0.70;;;17.10;97.90;;;;;;4958514;28;92492;-72
2022/09/27 13:20:41;;;;;;;1.83;1.27;;;17.10;98.00;;;;;;4976678;28;92526;-73
2022/09/27 13:23:20;;;;;;;2.03;0.98;;;17.10;97.80;;;;;;4960979;28;97367;-72
2022/09/27 13:25:52;;;;;;;2.42;1.85;;;16.90;98.20;;;;;;4977039;28;97770;-72
2022/09/27 13:28:32;;;;;;;2.25;1.73;;;17.00;98.30;;;;;;4976980;28;92522;-72
2022/09/27 13:31:03;;;;;;;2.60;0.85;;;16.80;98.60;;;;;;4977068;28;92574;-72
2022/09/27 13:33:49;;;;;;;2.90;2.40;;;16.70;98.90;;;;;;4976925;28;95493;-73
2022/09/27 13:36:25;;;;;;;1.80;1.70;;;16.60;99.60;;;;;;4976565;28;95300;-72
2022/09/27 13:39:05;;;;;;;1.65;1.55;;;16.40;99.90;;;;;;4976606;28;92441;-72
2022/09/27 13:41:45;;;;;;;2.00;0.70;;;16.20;99.90;;;;;;4962372;28;91810;-72
2022/09/27 13:44:44;;;;;;;2.90;0.95;;;16.10;99.90;;;;;;4976611;28;95705;-72
2022/09/27 13:47:35;;;;;;;1.38;1.23;;;16.10;99.90;;;;;;4976415;28;95264;-72
2022/09/27 13:50:48;;;;;;;2.05;1.35;;;16.00;99.90;;;;;;4984789;28;95014;-72
2022/09/27 13:53:25;;;;;;;1.08;0.70;;;15.90;99.90;;;;;;4939862;28;92742;-72